Latest Weather Observations for Oodnadatta

IDS60801

Issued at 2:02 pm CST Saturday 18 April 2015 (issued every 30 minutes, with the page automatically refreshed every 10 minutes)

About weather observations | Map of weather stations | Latest weather observations for SA | Other Formats
Station Details ID: 017043 Name: OODNADATTA AIRPORT Lat: -27.56 Lon: 135.45 Height: 116.5 m
Data from the previous 72 hours. | See also: Recent months at Oodnadatta
Date/Time
CST
Temp
°C
App
Temp
°C
Dew
Point
Rel
Hum
%
Delta-T
°C
Wind Press
QNH
hPa
Press
MSL
hPa
Rain
since 9 am
mm
Dir
 
Spd
km/h
Gust
km/h
Spd
kts
Gust
kts
18/02:00pm 23.8 19.8 9.0 39 8.0 S 20 32 11 17 1020.0 - 0.0
18/01:30pm 23.6 19.4 9.6 41 7.6 SSW 22 33 12 18 1020.4 - 0.0
18/01:00pm 22.6 18.8 9.7 44 7.0 SSW 20 28 11 15 1020.8 - 0.0
18/12:30pm 21.8 18.1 10.0 47 6.4 S 20 30 11 16 1021.4 - 0.0
18/12:00pm 21.5 17.8 10.0 48 6.2 SSE 20 33 11 18 1021.8 1021.4 0.0
18/11:30am 21.4 17.7 10.3 49 6.1 S 20 28 11 15 1022.0 - 0.0
18/11:00am 20.1 16.3 9.7 51 5.6 SSE 20 32 11 17 1022.4 - 0.0
18/10:30am 20.2 15.4 10.3 53 5.4 SSE 26 37 14 20 1022.3 - 0.0
18/10:00am 19.2 14.4 10.2 56 4.9 SSE 26 35 14 19 1022.3 - 0.0
18/09:30am 18.6 12.6 10.2 58 4.5 SSE 32 37 17 20 1022.4 - 0.0
18/09:00am 18.0 12.1 10.6 62 4.0 SSE 32 39 17 21 1022.3 1021.9 0.2
18/08:30am 16.5 12.2 10.6 68 3.2 SSE 24 32 13 17 1022.2 - 0.2
18/08:00am 15.9 12.5 11.3 74 2.5 SSE 20 24 11 13 1021.8 - 0.2
18/07:30am 14.8 11.6 11.2 79 1.9 S 19 24 10 13 1021.5 - 0.2
18/07:00am 14.4 11.0 11.2 81 1.7 S 20 26 11 14 1021.0 - 0.2
18/06:30am 14.6 10.9 11.4 81 1.7 S 22 28 12 15 1020.4 - 0.2
18/06:00am 14.9 11.6 11.5 80 1.8 S 20 26 11 14 1020.3 1019.9 0.2
18/05:30am 15.1 11.3 11.3 78 2.0 S 22 28 12 15 1019.5 - 0.2
18/05:00am 15.3 11.8 10.9 75 2.4 S 20 28 11 15 1019.1 - 0.2
18/04:30am 15.6 12.3 10.8 73 2.6 S 19 22 10 12 1018.6 - 0.2
18/04:00am 15.4 12.1 9.7 69 3.0 S 17 22 9 12 1018.2 - 0.2
18/03:30am 15.7 11.5 9.8 68 3.1 SSW 22 28 12 15 1018.0 - 0.2
18/03:00am 16.1 12.4 10.0 67 3.2 SSW 20 24 11 13 1018.1 1017.8 0.2
18/02:30am 16.3 12.2 10.2 67 3.2 SSW 22 26 12 14 1018.3 - 0.2
18/02:00am 16.5 13.0 10.1 66 3.4 SSW 19 20 10 11 1018.5 - 0.2
18/01:30am 16.8 13.7 10.4 66 3.4 SSW 17 20 9 11 1018.6 - 0.2
18/01:00am 17.0 15.1 10.4 65 3.5 S 11 15 6 8 1018.7 - 0.2
18/12:30am 17.4 15.0 10.1 62 3.9 SSW 13 17 7 9 1018.8 - 0.2
18/12:00am 18.1 14.6 10.2 60 4.2 SSW 19 22 10 12 1019.0 1018.7 0.2
 
Date/Time
CST
Temp
°C
App
Temp
°C
Dew
Point
Rel
Hum
%
Delta-T
°C
Wind Press
QNH
hPa
Press
MSL
hPa
Rain
since 9 am
mm
Dir
 
Spd
km/h
Gust
km/h
Spd
kts
Gust
kts
17/11:30pm 18.4 15.0 10.5 60 4.3 S 19 22 10 12 1019.0 - 0.2
17/11:00pm 18.9 15.3 10.7 59 4.5 S 20 24 11 13 1019.2 - 0.2
17/10:30pm 19.4 15.6 11.2 59 4.5 S 22 28 12 15 1019.2 - 0.2
17/10:00pm 19.9 15.0 11.4 58 4.7 S 28 39 15 21 1019.4 - 0.2
17/09:30pm 21.2 16.4 11.8 55 5.3 SSW 28 35 15 19 1019.2 - 0.2
17/09:00pm 21.5 16.7 11.8 54 5.4 SSW 28 35 15 19 1019.0 1018.7 0.2
17/08:30pm 21.7 17.8 12.0 54 5.5 SW 24 32 13 17 1018.8 - 0.2
17/08:00pm 21.5 19.8 12.4 56 5.2 SW 13 17 7 9 1018.6 - 0.2
17/07:30pm 21.6 18.5 12.2 55 5.3 SW 20 26 11 14 1018.4 - 0.2
17/07:00pm 21.5 19.8 12.6 57 5.1 SSW 13 19 7 10 1017.8 - 0.2
17/06:30pm 21.5 18.5 12.6 57 5.1 SW 20 24 11 13 1017.5 - 0.2
17/06:00pm 21.6 17.9 12.7 57 5.1 SW 24 32 13 17 1017.2 1016.8 0.2
17/05:30pm 22.0 18.3 12.8 56 5.3 SW 24 32 13 17 1016.8 - 0.2
17/05:00pm 22.1 17.7 12.9 56 5.3 SW 28 37 15 20 1016.4 - 0.2
17/04:30pm 22.9 18.2 13.1 54 5.7 SW 30 37 16 20 1016.5 - 0.2
17/04:00pm 23.4 18.7 13.3 53 5.9 SW 30 39 16 21 1016.1 - 0.2
17/03:30pm 24.0 19.3 13.2 50 6.3 SW 30 41 16 22 1016.0 - 0.2
17/03:00pm 25.0 20.8 13.5 48 6.8 SSW 28 37 15 20 1015.8 1015.4 0.2
17/02:30pm 25.4 20.5 13.6 48 7.0 SW 32 43 17 23 1015.7 - 0.2
17/02:00pm 25.0 20.4 13.5 48 6.8 SSW 30 39 16 21 1015.8 - 0.2
17/01:30pm 25.3 21.2 13.8 49 6.8 SSW 28 35 15 19 1016.1 - 0.2
17/01:00pm 24.5 20.5 14.0 52 6.2 SSW 28 37 15 20 1016.7 - 0.2
17/12:30pm 23.7 19.9 14.7 57 5.4 SSW 28 39 15 21 1017.3 - 0.2
17/12:00pm 23.3 19.2 14.8 59 5.1 S 30 37 16 20 1017.7 1017.4 0.0
17/11:30am 22.7 19.4 15.0 61 4.6 S 26 35 14 19 1018.5 - 0.0
17/11:00am 21.7 17.1 14.6 64 4.2 SSW 32 43 17 23 1018.4 - 0.0
17/10:30am 21.4 16.4 15.0 67 3.8 S 35 46 19 25 1018.6 - 0.0
17/10:00am 20.4 15.9 15.4 73 3.0 SSW 33 41 18 22 1018.9 - 0.0
17/09:30am 19.5 15.2 14.5 73 2.9 SSW 30 35 16 19 1019.0 - 0.0
17/09:00am 19.4 15.5 14.4 73 2.9 SSW 28 33 15 18 1019.0 1018.7 0.0
17/08:30am 18.9 15.3 14.2 74 2.7 SSW 26 32 14 17 1019.1 - 0.0
17/08:00am 18.7 16.2 14.2 75 2.6 SW 20 26 11 14 1018.9 - 0.0
17/07:30am 18.3 16.5 14.4 78 2.3 SW 17 20 9 11 1018.9 - 0.0
17/07:00am 18.5 17.7 15.0 80 2.1 SSW 13 15 7 8 1018.5 - 0.0
17/06:30am 18.5 18.2 15.4 82 1.8 S 11 17 6 9 1018.3 - 0.0
17/06:00am 18.7 18.5 14.8 78 2.3 SSW 9 15 5 8 1018.4 1018.1 0.0
17/05:30am 18.7 17.8 14.8 78 2.3 S 13 15 7 8 1018.0 - 0.0
17/05:00am 18.7 17.4 14.8 78 2.3 S 15 20 8 11 1017.4 - 0.0
17/04:30am 18.8 16.6 14.3 75 2.6 SSW 19 24 10 13 1017.4 - 0.0
17/04:00am 19.0 16.2 14.3 74 2.7 SW 22 32 12 17 1017.4 - 0.0
17/03:30am 19.4 16.6 14.2 72 3.0 SW 22 30 12 16 1017.2 - 0.0
17/03:00am 19.3 15.7 14.3 73 2.9 SSW 26 32 14 17 1016.7 1016.3 0.0
17/02:30am 19.3 15.8 14.6 74 2.7 S 26 32 14 17 1017.1 - 0.0
17/02:00am 19.5 17.5 16.5 83 1.8 S 22 28 12 15 1017.1 - 0.0
17/01:30am 19.9 17.9 16.5 81 2.1 S 22 30 12 16 1017.9 - 0.0
17/01:00am 20.0 17.6 16.4 80 2.2 S 24 32 13 17 1018.3 - 0.0
17/12:30am 21.1 17.6 15.6 71 3.3 SSE 28 32 15 17 1018.4 - 0.0
17/12:00am 21.8 17.9 15.4 67 3.8 SSW 30 35 16 19 1017.8 1017.5 0.0
 
Date/Time
CST
Temp
°C
App
Temp
°C
Dew
Point
Rel
Hum
%
Delta-T
°C
Wind Press
QNH
hPa
Press
MSL
hPa
Rain
since 9 am
mm
Dir
 
Spd
km/h
Gust
km/h
Spd
kts
Gust
kts
16/11:30pm 22.8 18.4 14.1 58 5.1 SSW 30 37 16 20 1017.6 - 0.0
16/11:00pm 23.3 18.1 13.5 54 5.7 SW 33 46 18 25 1018.1 - 0.0
16/10:30pm 23.4 16.8 13.6 54 5.7 SW 41 52 22 28 1018.3 - 0.0
16/10:00pm 23.7 17.4 13.6 53 5.9 SW 39 50 21 27 1018.2 - 0.0
16/09:30pm 24.0 18.5 13.5 52 6.1 SW 35 50 19 27 1017.7 - 0.0
16/09:00pm 24.6 19.5 13.2 49 6.6 SW 32 41 17 22 1017.5 1017.1 0.0
16/08:30pm 25.3 21.4 14.4 50 6.5 S 28 37 15 20 1017.5 - 0.0
16/08:00pm 25.8 21.9 14.3 49 6.9 S 28 39 15 21 1017.2 - 0.0
16/07:30pm 26.4 21.4 13.9 46 7.4 S 33 41 18 22 1017.0 - 0.0
16/07:00pm 26.9 21.0 13.6 44 7.9 S 37 46 20 25 1016.4 - 0.0
16/06:30pm 27.7 22.3 12.9 40 8.7 S 33 43 18 23 1015.7 - 0.0
16/06:00pm 28.5 21.8 12.4 37 9.4 SSW 39 50 21 27 1015.7 1015.3 0.0
16/05:30pm 30.1 24.1 12.1 33 10.6 SSW 35 44 19 24 1015.2 - 0.0
16/05:22pm 30.7 26.0 12.1 32 11.0 SSW 28 41 15 22 1014.9 - 0.0
16/05:00pm 30.5 29.5 12.4 33 10.7 WNW 9 17 5 9 1014.7 - 0.0
16/04:30pm 32.0 26.5 11.7 28 11.9 NNW 32 50 17 27 1014.9 - 0.0
16/04:26pm 32.4 26.8 11.6 28 12.2 NNW 32 50 17 27 1014.7 - 0.0
16/04:00pm 34.5 29.3 10.4 23 14.1 W 28 37 15 20 1013.2 - 0.0
16/03:30pm 35.3 30.7 9.7 21 14.8 W 24 32 13 17 1013.2 - 0.0
16/03:00pm 36.0 32.3 10.2 21 15.1 WNW 20 30 11 16 1013.0 1012.6 0.0
16/02:30pm 35.8 31.7 10.1 21 15.0 NW 22 30 12 16 1013.5 - 0.0
16/02:00pm 36.3 32.1 9.8 20 15.4 WNW 22 30 12 16 1014.0 - 0.0
16/01:30pm 35.6 31.8 9.9 21 14.9 WNW 20 33 11 18 1014.3 - 0.0
16/01:00pm 36.4 32.1 10.6 21 15.2 NW 24 33 13 18 1014.7 - 0.0
16/12:30pm 34.7 29.6 10.5 23 14.1 NNW 28 41 15 22 1015.3 - 0.0
16/12:00pm 35.1 31.2 10.9 23 14.2 NNW 22 39 12 21 1015.8 1015.4 0.0
16/11:30am 32.7 29.3 10.7 26 12.8 NW 19 32 10 17 1016.2 - 0.0
16/11:00am 32.7 28.8 10.7 26 12.8 NNW 22 30 12 16 1016.5 - 0.0
16/10:30am 31.2 29.9 10.0 27 12.1 NW 7 9 4 5 1016.9 - 0.0
16/10:00am 29.6 28.4 9.7 29 11.2 S 6 11 3 6 1017.3 - 0.0
16/09:30am 28.2 26.4 9.5 31 10.4 ESE 9 15 5 8 1017.5 - 0.0
16/09:00am 27.1 24.5 9.5 33 9.8 SE 13 17 7 9 1017.5 1017.1 0.0
16/08:30am 25.0 21.7 8.1 34 9.1 S 15 17 8 9 1017.5 - 0.0
16/08:00am 23.6 20.2 7.7 36 8.4 SSW 15 17 8 9 1017.4 - 0.0
16/07:30am 22.7 19.6 7.3 37 8.0 S 13 15 7 8 1017.1 - 0.0
16/07:00am 22.2 19.6 7.6 39 7.6 S 11 13 6 7 1016.9 - 0.0
16/06:30am 22.9 20.8 8.2 39 7.8 SSE 9 13 5 7 1016.6 - 0.0
16/06:00am 23.1 20.6 8.0 38 8.0 SSE 11 15 6 8 1016.5 1016.1 0.0
16/05:30am 23.5 21.0 8.0 37 8.2 S 11 13 6 7 1016.1 - 0.0
16/05:00am 24.3 20.3 8.3 36 8.6 ESE 19 22 10 12 1015.8 - 0.0
16/04:30am 24.4 20.7 8.0 35 8.7 SE 17 20 9 11 1015.7 - 0.0
16/04:00am 24.7 21.1 8.2 35 8.8 SE 17 20 9 11 1015.8 - 0.0
16/03:30am 24.9 21.2 8.0 34 9.0 SSE 17 20 9 11 1016.1 - 0.0
16/03:00am 25.4 21.3 8.0 33 9.3 SE 19 22 10 12 1016.1 1015.7 0.0
16/02:30am 26.0 21.6 7.6 31 9.8 SE 20 28 11 15 1016.4 - 0.0
16/02:00am 26.4 21.4 7.9 31 10.0 SE 24 30 13 16 1016.6 - 0.0
16/01:30am 27.0 21.5 7.5 29 10.5 ESE 26 32 14 17 1017.1 - 0.0
16/01:00am 27.7 22.2 7.5 28 10.9 ESE 26 37 14 20 1017.0 - 0.0
16/12:30am 28.4 23.3 7.6 27 11.3 SE 24 32 13 17 1017.1 - 0.0
16/12:00am 27.7 23.4 7.0 27 11.0 SE 19 24 10 13 1017.2 1016.8 0.0
 
Date/Time
CST
Temp
°C
App
Temp
°C
Dew
Point
Rel
Hum
%
Delta-T
°C
Wind Press
QNH
hPa
Press
MSL
hPa
Rain
since 9 am
mm
Dir
 
Spd
km/h
Gust
km/h
Spd
kts
Gust
kts
15/11:30pm 27.1 23.4 6.5 27 10.9 SE 15 19 8 10 1017.3 - 0.0
15/11:00pm 28.0 24.0 6.7 26 11.3 SSE 17 20 9 11 1017.7 - 0.0
15/10:30pm 28.8 24.5 6.8 25 11.8 SSE 19 24 10 13 1017.7 - 0.0
15/10:00pm 29.0 24.7 7.0 25 11.8 SSE 19 20 10 11 1017.5 - 0.0
15/09:30pm 29.7 25.4 7.0 24 12.3 SSE 19 22 10 12 1017.5 - 0.0
15/09:00pm 30.5 25.6 7.0 23 12.7 SSE 22 26 12 14 1017.3 1016.9 0.0
15/08:30pm 31.2 26.3 7.0 22 13.2 SSE 22 28 12 15 1017.1 - 0.0
15/08:00pm 31.7 26.4 6.7 21 13.6 S 24 32 13 17 1016.7 - 0.0
15/07:30pm 32.6 26.1 6.7 20 14.1 S 30 35 16 19 1016.3 - 0.0
15/07:00pm 33.4 26.5 6.6 19 14.7 S 32 41 17 22 1016.0 - 0.0
15/06:30pm 34.4 27.4 5.8 17 15.5 S 32 41 17 22 1015.4 - 0.0
15/06:08pm 35.2 27.6 5.6 16 16.1 S 35 43 19 23 1015.0 - 0.0
15/06:00pm 35.9 32.2 4.2 14 16.9 SSE 13 17 7 9 1015.1 1014.7 0.0
15/05:30pm 36.6 31.6 3.7 13 17.5 SSE 19 24 10 13 1014.8 - 0.0
15/05:00pm 37.0 33.2 4.0 13 17.7 SSE 13 17 7 9 1014.6 - 0.0
15/04:30pm 37.4 33.5 3.2 12 18.1 ESE 13 19 7 10 1014.5 - 0.0
15/04:00pm 37.3 34.7 4.3 13 17.8 E 7 13 4 7 1014.5 - 0.0
15/03:30pm 37.2 33.1 4.2 13 17.7 E 15 39 8 21 1014.5 - 0.0
15/03:00pm 36.9 32.5 5.0 14 17.3 SSE 17 30 9 16 1014.5 1014.1 0.0
15/02:30pm 37.2 33.7 5.3 14 17.4 SSE 13 20 7 11 1014.6 - 0.0

Other Formats:

Comma delimited format used in spreadsheet applications
http://www.bom.gov.au/fwo/IDS60801/IDS60801.94476.axf

JavaScript Object Notation format (JSON) in row-major order
http://www.bom.gov.au/fwo/IDS60801/IDS60801.94476.json